sensor_id;sensor_type;location;lat;lon;timestamp;pressure;altitude;pressure_sealevel;temperature;humidity
32761;BME280;19126;47.472;7.850;2023-01-29T00:01:32;97462.09;;;-1.01;100.00
32761;BME280;19126;47.472;7.850;2023-01-29T00:03:59;97466.50;;;-1.04;100.00
32761;BME280;19126;47.472;7.850;2023-01-29T00:06:26;97461.28;;;-1.02;100.00
32761;BME280;19126;47.472;7.850;2023-01-29T00:08:53;97454.34;;;-1.01;100.00
32761;BME280;19126;47.472;7.850;2023-01-29T00:11:22;97450.97;;;-1.02;100.00
32761;BME280;19126;47.472;7.850;2023-01-29T00:13:50;97457.63;;;-0.98;100.00
32761;BME280;19126;47.472;7.850;2023-01-29T00:16:17;97453.28;;;-0.97;100.00
32761;BME280;19126;47.472;7.850;2023-01-29T00:18:44;97456.00;;;-1.00;100.00
32761;BME280;19126;47.472;7.850;2023-01-29T00:21:12;97453.59;;;-1.04;100.00
32761;BME280;19126;47.472;7.850;2023-01-29T00:23:40;97454.50;;;-1.05;100.00
32761;BME280;19126;47.472;7.850;2023-01-29T00:26:08;97441.88;;;-1.09;100.00
32761;BME280;19126;47.472;7.850;2023-01-29T00:28:36;97446.03;;;-1.07;100.00
32761;BME280;19126;47.472;7.850;2023-01-29T00:31:07;97451.94;;;-1.05;100.00
32761;BME280;19126;47.472;7.850;2023-01-29T00:33:34;97456.94;;;-1.01;100.00
32761;BME280;19126;47.472;7.850;2023-01-29T00:36:02;97453.53;;;-1.02;100.00
32761;BME280;19126;47.472;7.850;2023-01-29T00:38:29;97451.03;;;-1.04;100.00
32761;BME280;19126;47.472;7.850;2023-01-29T00:40:56;97449.34;;;-1.05;100.00
32761;BME280;19126;47.472;7.850;2023-01-29T00:43:42;97435.53;;;-1.04;100.00
32761;BME280;19126;47.472;7.850;2023-01-29T00:46:27;97442.47;;;-1.04;100.00
32761;BME280;19126;47.472;7.850;2023-01-29T00:48:54;97434.72;;;-1.04;100.00
32761;BME280;19126;47.472;7.850;2023-01-29T00:51:21;97439.72;;;-1.01;100.00
32761;BME280;19126;47.472;7.850;2023-01-29T00:53:48;97445.63;;;-0.99;100.00
32761;BME280;19126;47.472;7.850;2023-01-29T00:56:15;97443.97;;;-1.00;100.00
32761;BME280;19126;47.472;7.850;2023-01-29T00:58:43;97443.97;;;-1.00;100.00
32761;BME280;19126;47.472;7.850;2023-01-29T01:01:10;97447.31;;;-0.98;100.00
32761;BME280;19126;47.472;7.850;2023-01-29T01:03:37;97451.38;;;-0.94;100.00
32761;BME280;19126;47.472;7.850;2023-01-29T01:06:08;97447.13;;;-0.95;100.00
32761;BME280;19126;47.472;7.850;2023-01-29T01:08:36;97452.88;;;-0.90;100.00
32761;BME280;19126;47.472;7.850;2023-01-29T01:11:20;97451.81;;;-0.85;100.00
32761;BME280;19126;47.472;7.850;2023-01-29T01:13:50;97450.22;;;-0.88;100.00
32761;BME280;19126;47.472;7.850;2023-01-29T01:16:17;97463.19;;;-0.90;100.00
32761;BME280;19126;47.472;7.850;2023-01-29T01:18:45;97452.94;;;-0.91;100.00
32761;BME280;19126;47.472;7.850;2023-01-29T01:21:12;97453.13;;;-0.94;100.00
32761;BME280;19126;47.472;7.850;2023-01-29T01:23:39;97463.25;;;-0.91;100.00
32761;BME280;19126;47.472;7.850;2023-01-29T01:26:09;97458.19;;;-0.93;100.00
32761;BME280;19126;47.472;7.850;2023-01-29T01:28:36;97459.88;;;-0.92;100.00
32761;BME280;19126;47.472;7.850;2023-01-29T01:31:09;97462.44;;;-0.92;100.00
32761;BME280;19126;47.472;7.850;2023-01-29T01:33:36;97475.25;;;-0.90;100.00
32761;BME280;19126;47.472;7.850;2023-01-29T01:36:05;97472.06;;;-0.95;100.00
32761;BME280;19126;47.472;7.850;2023-01-29T01:38:34;97482.22;;;-0.92;100.00
32761;BME280;19126;47.472;7.850;2023-01-29T01:41:01;97479.00;;;-0.80;100.00
32761;BME280;19126;47.472;7.850;2023-01-29T01:43:50;97476.59;;;-0.83;100.00
32761;BME280;19126;47.472;7.850;2023-01-29T01:46:19;97482.66;;;-0.84;100.00
32761;BME280;19126;47.472;7.850;2023-01-29T01:48:49;97477.66;;;-0.87;100.00
32761;BME280;19126;47.472;7.850;2023-01-29T01:51:17;97478.50;;;-0.86;100.00
32761;BME280;19126;47.472;7.850;2023-01-29T01:53:48;97464.78;;;-0.87;100.00
32761;BME280;19126;47.472;7.850;2023-01-29T01:56:18;97466.44;;;-0.86;100.00
32761;BME280;19126;47.472;7.850;2023-01-29T01:58:49;97469.09;;;-0.87;100.00
32761;BME280;19126;47.472;7.850;2023-01-29T02:01:18;97463.03;;;-0.86;100.00
32761;BME280;19126;47.472;7.850;2023-01-29T02:04:01;97468.94;;;-0.84;100.00
32761;BME280;19126;47.472;7.850;2023-01-29T02:06:49;97480.94;;;-0.83;100.00
32761;BME280;19126;47.472;7.850;2023-01-29T02:09:51;97476.16;;;-0.91;100.00
32761;BME280;19126;47.472;7.850;2023-01-29T02:12:24;97471.00;;;-0.91;100.00
32761;BME280;19126;47.472;7.850;2023-01-29T02:14:59;97464.78;;;-0.87;100.00
32761;BME280;19126;47.472;7.850;2023-01-29T02:17:28;97469.94;;;-0.87;100.00
32761;BME280;19126;47.472;7.850;2023-01-29T02:20:02;97463.19;;;-0.90;100.00
32761;BME280;19126;47.472;7.850;2023-01-29T02:23:01;97474.16;;;-0.86;100.00
32761;BME280;19126;47.472;7.850;2023-01-29T02:25:46;97471.09;;;-0.93;100.00
32761;BME280;19126;47.472;7.850;2023-01-29T02:28:30;97466.44;;;-0.86;100.00
32761;BME280;19126;47.472;7.850;2023-01-29T02:31:06;97466.19;;;-0.81;100.00
32761;BME280;19126;47.472;7.850;2023-01-29T02:33:40;97466.69;;;-0.75;100.00
32761;BME280;19126;47.472;7.850;2023-01-29T02:36:16;97467.44;;;-0.72;100.00
32761;BME280;19126;47.472;7.850;2023-01-29T02:38:53;97465.38;;;-0.66;100.00
32761;BME280;19126;47.472;7.850;2023-01-29T02:41:30;97465.44;;;-0.67;100.00
32761;BME280;19126;47.472;7.850;2023-01-29T02:44:04;97456.03;;;-0.68;100.00
32761;BME280;19126;47.472;7.850;2023-01-29T02:46:42;97451.16;;;-0.73;100.00
32761;BME280;19126;47.472;7.850;2023-01-29T02:49:22;97451.38;;;-0.78;100.00
32761;BME280;19126;47.472;7.850;2023-01-29T02:52:00;97468.53;;;-0.77;100.00
32761;BME280;19126;47.472;7.850;2023-01-29T02:54:38;97473.50;;;-0.74;100.00
32761;BME280;19126;47.472;7.850;2023-01-29T02:57:15;97471.44;;;-0.67;100.00
32761;BME280;19126;47.472;7.850;2023-01-29T02:59:53;97462.44;;;-0.76;100.00
32761;BME280;19126;47.472;7.850;2023-01-29T03:02:41;97467.63;;;-0.60;100.00
32761;BME280;19126;47.472;7.850;2023-01-29T03:05:19;97470.44;;;-0.64;100.00
32761;BME280;19126;47.472;7.850;2023-01-29T03:07:49;97465.22;;;-0.63;100.00
32761;BME280;19126;47.472;7.850;2023-01-29T03:10:23;97466.53;;;-0.55;99.80
32761;BME280;19126;47.472;7.850;2023-01-29T03:12:58;97474.13;;;-0.52;99.90
32761;BME280;19126;47.472;7.850;2023-01-29T03:15:42;97455.38;;;-0.56;97.78
32761;BME280;19126;47.472;7.850;2023-01-29T03:18:13;97462.13;;;-0.53;96.96
32761;BME280;19126;47.472;7.850;2023-01-29T03:20:44;97462.03;;;-0.52;96.55
32761;BME280;19126;47.472;7.850;2023-01-29T03:23:15;97458.38;;;-0.48;94.80
32761;BME280;19126;47.472;7.850;2023-01-29T03:25:49;97472.13;;;-0.47;94.16
32761;BME280;19126;47.472;7.850;2023-01-29T03:28:37;97458.63;;;-0.52;94.14
32761;BME280;19126;47.472;7.850;2023-01-29T03:31:24;97468.78;;;-0.49;94.37
32761;BME280;19126;47.472;7.850;2023-01-29T03:34:12;97467.59;;;-0.43;94.92
32761;BME280;19126;47.472;7.850;2023-01-29T03:36:56;97466.63;;;-0.41;94.98
32761;BME280;19126;47.472;7.850;2023-01-29T03:39:26;97481.34;;;-0.43;94.19
32761;BME280;19126;47.472;7.850;2023-01-29T03:41:56;97478.19;;;-0.48;94.04
32761;BME280;19126;47.472;7.850;2023-01-29T03:44:32;97472.34;;;-0.52;94.70
32761;BME280;19126;47.472;7.850;2023-01-29T03:47:15;97471.94;;;-0.44;94.68
32761;BME280;19126;47.472;7.850;2023-01-29T03:49:55;97467.28;;;-0.53;95.33
32761;BME280;19126;47.472;7.850;2023-01-29T03:52:26;97462.38;;;-0.58;96.15
32761;BME280;19126;47.472;7.850;2023-01-29T03:54:59;97467.69;;;-0.61;96.82
32761;BME280;19126;47.472;7.850;2023-01-29T03:57:34;97470.59;;;-0.67;96.53
32761;BME280;19126;47.472;7.850;2023-01-29T04:00:13;97461.13;;;-0.67;97.36
32761;BME280;19126;47.472;7.850;2023-01-29T04:02:58;97472.44;;;-0.53;98.12
32761;BME280;19126;47.472;7.850;2023-01-29T04:05:32;97466.88;;;-0.62;97.76
32761;BME280;19126;47.472;7.850;2023-01-29T04:08:07;97474.34;;;-0.57;98.71
32761;BME280;19126;47.472;7.850;2023-01-29T04:10:39;97465.53;;;-0.53;98.03
32761;BME280;19126;47.472;7.850;2023-01-29T04:13:13;97458.63;;;-0.52;97.96
32761;BME280;19126;47.472;7.850;2023-01-29T04:15:44;97461.44;;;-0.57;98.56
32761;BME280;19126;47.472;7.850;2023-01-29T04:18:14;97453.88;;;-0.60;99.25
32761;BME280;19126;47.472;7.850;2023-01-29T04:20:42;97451.28;;;-0.60;98.66
32761;BME280;19126;47.472;7.850;2023-01-29T04:23:18;97449.88;;;-0.50;96.75
32761;BME280;19126;47.472;7.850;2023-01-29T04:25:55;97452.97;;;-0.59;96.34
32761;BME280;19126;47.472;7.850;2023-01-29T04:28:42;97447.47;;;-0.53;96.22
32761;BME280;19126;47.472;7.850;2023-01-29T04:31:14;97452.72;;;-0.54;96.20
32761;BME280;19126;47.472;7.850;2023-01-29T04:33:46;97453.63;;;-0.55;97.04
32761;BME280;19126;47.472;7.850;2023-01-29T04:36:27;97458.38;;;-0.64;96.56
32761;BME280;19126;47.472;7.850;2023-01-29T04:39:11;97454.97;;;-0.64;97.41
32761;BME280;19126;47.472;7.850;2023-01-29T04:41:48;97440.06;;;-0.75;97.99
32761;BME280;19126;47.472;7.850;2023-01-29T04:44:20;97464.03;;;-0.57;98.18
32761;BME280;19126;47.472;7.850;2023-01-29T04:47:02;97466.78;;;-0.60;97.20
32761;BME280;19126;47.472;7.850;2023-01-29T04:49:45;97466.47;;;-0.70;97.10
32761;BME280;19126;47.472;7.850;2023-01-29T04:52:22;97455.47;;;-0.74;97.41
32761;BME280;19126;47.472;7.850;2023-01-29T04:55:02;97459.03;;;-0.76;97.69
32761;BME280;19126;47.472;7.850;2023-01-29T04:57:42;97476.63;;;-0.67;97.02
32761;BME280;19126;47.472;7.850;2023-01-29T05:03:46;97478.69;;;-0.74;97.14
32761;BME280;19126;47.472;7.850;2023-01-29T05:06:32;97466.09;;;-0.80;97.14
32761;BME280;19126;47.472;7.850;2023-01-29T05:09:20;97467.13;;;-0.82;98.24
32761;BME280;19126;47.472;7.850;2023-01-29T05:11:53;97474.38;;;-0.73;98.58
32761;BME280;19126;47.472;7.850;2023-01-29T05:14:26;97463.47;;;-0.78;98.53
32761;BME280;19126;47.472;7.850;2023-01-29T05:16:58;97471.69;;;-0.71;98.85
32761;BME280;19126;47.472;7.850;2023-01-29T05:19:36;97474.59;;;-0.78;99.67
32761;BME280;19126;47.472;7.850;2023-01-29T05:22:06;97467.59;;;-0.76;99.44
32761;BME280;19126;47.472;7.850;2023-01-29T05:24:36;97469.75;;;-0.84;99.69
32761;BME280;19126;47.472;7.850;2023-01-29T05:27:08;97475.59;;;-0.80;99.96
32761;BME280;19126;47.472;7.850;2023-01-29T05:29:57;97474.75;;;-0.81;100.00
32761;BME280;19126;47.472;7.850;2023-01-29T05:32:27;97483.41;;;-0.82;100.00
32761;BME280;19126;47.472;7.850;2023-01-29T05:34:54;97480.09;;;-0.84;100.00
32761;BME280;19126;47.472;7.850;2023-01-29T05:37:25;97473.84;;;-0.80;100.00
32761;BME280;19126;47.472;7.850;2023-01-29T05:39:52;97484.16;;;-0.80;100.00
32761;BME280;19126;47.472;7.850;2023-01-29T05:42:20;97486.00;;;-0.82;100.00
32761;BME280;19126;47.472;7.850;2023-01-29T05:44:47;97481.75;;;-0.83;100.00
32761;BME280;19126;47.472;7.850;2023-01-29T05:47:17;97487.66;;;-0.81;100.00
32761;BME280;19126;47.472;7.850;2023-01-29T05:49:45;97477.66;;;-0.87;100.00
32761;BME280;19126;47.472;7.850;2023-01-29T05:52:12;97492.91;;;-0.82;100.00
32761;BME280;19126;47.472;7.850;2023-01-29T05:54:45;97489.31;;;-0.80;100.00
32761;BME280;19126;47.472;7.850;2023-01-29T05:57:13;97497.91;;;-0.79;100.00
32761;BME280;19126;47.472;7.850;2023-01-29T05:59:43;97501.47;;;-0.82;100.00
32761;BME280;19126;47.472;7.850;2023-01-29T06:02:12;97496.25;;;-0.80;100.00
32761;BME280;19126;47.472;7.850;2023-01-29T06:04:42;97500.66;;;-0.82;100.00
32761;BME280;19126;47.472;7.850;2023-01-29T06:07:09;97492.91;;;-0.82;100.00
32761;BME280;19126;47.472;7.850;2023-01-29T06:09:37;97490.41;;;-0.84;100.00
32761;BME280;19126;47.472;7.850;2023-01-29T06:12:06;97483.91;;;-0.91;100.00
32761;BME280;19126;47.472;7.850;2023-01-29T06:14:33;97501.72;;;-0.86;100.00
32761;BME280;19126;47.472;7.850;2023-01-29T06:17:03;97503.63;;;-0.90;100.00
32761;BME280;19126;47.472;7.850;2023-01-29T06:19:30;97505.22;;;-0.87;100.00
32761;BME280;19126;47.472;7.850;2023-01-29T06:21:59;97514.13;;;-0.77;100.00
32761;BME280;19126;47.472;7.850;2023-01-29T06:24:32;97521.13;;;-0.79;100.00
32761;BME280;19126;47.472;7.850;2023-01-29T06:27:01;97511.28;;;-0.89;100.00
32761;BME280;19126;47.472;7.850;2023-01-29T06:29:30;97521.50;;;-0.87;100.00
32761;BME280;19126;47.472;7.850;2023-01-29T06:32:04;97526.59;;;-0.85;100.00
32761;BME280;19126;47.472;7.850;2023-01-29T06:34:36;97521.50;;;-0.87;100.00
32761;BME280;19126;47.472;7.850;2023-01-29T06:37:03;97524.78;;;-0.83;100.00
32761;BME280;19126;47.472;7.850;2023-01-29T06:39:35;97531.59;;;-0.82;100.00
32761;BME280;19126;47.472;7.850;2023-01-29T06:42:02;97531.59;;;-0.82;100.00
32761;BME280;19126;47.472;7.850;2023-01-29T06:44:31;97540.31;;;-0.85;100.00
32761;BME280;19126;47.472;7.850;2023-01-29T06:46:58;97528.28;;;-0.84;100.00
32761;BME280;19126;47.472;7.850;2023-01-29T06:49:28;97518.72;;;-0.82;100.00
32761;BME280;19126;47.472;7.850;2023-01-29T06:51:56;97514.69;;;-0.88;100.00
32761;BME280;19126;47.472;7.850;2023-01-29T06:54:26;97517.38;;;-0.90;100.00
32761;BME280;19126;47.472;7.850;2023-01-29T06:56:54;97508.38;;;-0.82;100.00
32761;BME280;19126;47.472;7.850;2023-01-29T06:59:25;97501.72;;;-0.86;100.00
32761;BME280;19126;47.472;7.850;2023-01-29T07:01:55;97509.97;;;-0.80;100.00
32761;BME280;19126;47.472;7.850;2023-01-29T07:04:22;97501.72;;;-0.86;99.77
32761;BME280;19126;47.472;7.850;2023-01-29T07:06:49;97505.81;;;-0.82;100.00
32761;BME280;19126;47.472;7.850;2023-01-29T07:09:20;97514.38;;;-0.82;99.40
32761;BME280;19126;47.472;7.850;2023-01-29T07:11:48;97513.63;;;-0.84;98.85
32761;BME280;19126;47.472;7.850;2023-01-29T07:14:17;97519.84;;;-0.88;98.50
32761;BME280;19126;47.472;7.850;2023-01-29T07:16:48;97525.00;;;-0.88;98.58
32761;BME280;19126;47.472;7.850;2023-01-29T07:19:36;97513.94;;;-0.90;98.58
32761;BME280;19126;47.472;7.850;2023-01-29T07:22:16;97525.44;;;-0.80;98.13
32761;BME280;19126;47.472;7.850;2023-01-29T07:25:06;97527.44;;;-0.85;99.27
32761;BME280;19126;47.472;7.850;2023-01-29T09:09:56;97570.94;;;-0.29;98.67
32761;BME280;19126;47.472;7.850;2023-01-29T09:12:26;97575.53;;;-0.18;98.74
32761;BME280;19126;47.472;7.850;2023-01-29T09:14:55;97582.38;;;-0.17;98.65
32761;BME280;19126;47.472;7.850;2023-01-29T09:17:28;97588.28;;;-0.15;99.27
32761;BME280;19126;47.472;7.850;2023-01-29T09:19:57;97581.47;;;-0.16;98.53
32761;BME280;19126;47.472;7.850;2023-01-29T09:22:25;97582.97;;;-0.12;97.03
32761;BME280;19126;47.472;7.850;2023-01-29T09:24:57;97592.28;;;-0.09;96.87
32761;BME280;19126;47.472;7.850;2023-01-29T09:27:30;97605.03;;;-0.06;95.67
32761;BME280;19126;47.472;7.850;2023-01-29T09:30:00;97600.94;;;-0.10;94.47
32761;BME280;19126;47.472;7.850;2023-01-29T09:40:42;97586.53;;;-0.15;93.00
32761;BME280;19126;47.472;7.850;2023-01-29T09:42:59;97588.53;;;-0.04;92.68
32761;BME280;19126;47.472;7.850;2023-01-29T11:14:48;97557.56;;;0.73;97.55
32761;BME280;19126;47.472;7.850;2023-01-29T11:17:32;97561.34;;;0.82;96.17
32761;BME280;19126;47.472;7.850;2023-01-29T11:20:39;97555.25;;;0.83;95.89
32761;BME280;19126;47.472;7.850;2023-01-29T11:23:38;97560.72;;;0.93;96.14
32761;BME280;19126;47.472;7.850;2023-01-29T11:26:08;97551.47;;;0.89;95.54
32761;BME280;19126;47.472;7.850;2023-01-29T13:37:26;97482.19;;;0.80;85.75
32761;BME280;19126;47.472;7.850;2023-01-29T13:40:06;97482.09;;;0.96;85.62
32761;BME280;19126;47.472;7.850;2023-01-29T13:43:11;97474.13;;;0.99;84.97
32761;BME280;19126;47.472;7.850;2023-01-29T13:49:20;97454.34;;;1.12;84.62
32761;BME280;19126;47.472;7.850;2023-01-29T13:55:43;97453.34;;;1.15;83.24
32761;BME280;19126;47.472;7.850;2023-01-29T20:50:16;97542.94;;;-4.79;100.00
32761;BME280;19126;47.472;7.850;2023-01-29T20:52:47;97558.09;;;-4.73;100.00
32761;BME280;19126;47.472;7.850;2023-01-29T20:55:18;97554.03;;;-4.78;100.00
32761;BME280;19126;47.472;7.850;2023-01-29T20:57:51;97552.28;;;-4.78;100.00
32761;BME280;19126;47.472;7.850;2023-01-29T21:00:24;97543.03;;;-4.82;100.00
32761;BME280;19126;47.472;7.850;2023-01-29T21:02:59;97552.28;;;-4.78;100.00
32761;BME280;19126;47.472;7.850;2023-01-29T21:05:32;97549.16;;;-4.86;100.00
32761;BME280;19126;47.472;7.850;2023-01-29T21:08:08;97552.84;;;-4.93;100.00
32761;BME280;19126;47.472;7.850;2023-01-29T21:10:44;97566.31;;;-4.88;100.00
32761;BME280;19126;47.472;7.850;2023-01-29T21:13:14;97544.56;;;-5.00;100.00
32761;BME280;19126;47.472;7.850;2023-01-29T21:15:59;97543.34;;;-4.90;100.00
32761;BME280;19126;47.472;7.850;2023-01-29T21:18:47;97549.91;;;-4.82;100.00
32761;BME280;19126;47.472;7.850;2023-01-29T21:24:42;97533.91;;;-4.89;100.00
32761;BME280;19126;47.472;7.850;2023-01-29T21:27:16;97537.13;;;-4.84;100.00
32761;BME280;19126;47.472;7.850;2023-01-29T21:29:55;97529.06;;;-4.97;100.00
32761;BME280;19126;47.472;7.850;2023-01-29T21:32:35;97544.38;;;-4.95;100.00
32761;BME280;19126;47.472;7.850;2023-01-29T21:35:37;97540.47;;;-5.06;100.00
32761;BME280;19126;47.472;7.850;2023-01-29T21:38:10;97536.50;;;-5.15;100.00
32761;BME280;19126;47.472;7.850;2023-01-29T21:40:51;97533.28;;;-5.20;100.00
32761;BME280;19126;47.472;7.850;2023-01-29T21:43:43;97527.94;;;-5.13;100.00
32761;BME280;19126;47.472;7.850;2023-01-29T21:46:37;97537.19;;;-5.09;100.00
32761;BME280;19126;47.472;7.850;2023-01-29T21:52:54;97524.28;;;-5.32;100.00
32761;BME280;19126;47.472;7.850;2023-01-29T21:56:03;97522.59;;;-5.33;100.00
32761;BME280;19126;47.472;7.850;2023-01-29T22:00:08;97524.59;;;-5.41;100.00
32761;BME280;19126;47.472;7.850;2023-01-29T22:08:26;97519.22;;;-5.59;100.00
32761;BME280;19126;47.472;7.850;2023-01-29T22:11:29;97529.97;;;-5.49;100.00
32761;BME280;19126;47.472;7.850;2023-01-29T22:14:49;97512.47;;;-5.61;100.00
32761;BME280;19126;47.472;7.850;2023-01-29T22:17:27;97514.00;;;-5.55;100.00
32761;BME280;19126;47.472;7.850;2023-01-29T22:23:20;97520.56;;;-5.48;100.00
32761;BME280;19126;47.472;7.850;2023-01-29T22:26:37;97514.03;;;-5.57;100.00
32761;BME280;19126;47.472;7.850;2023-01-29T22:29:40;97512.16;;;-5.77;100.00
32761;BME280;19126;47.472;7.850;2023-01-29T22:32:41;97517.84;;;-5.69;100.00
32761;BME280;19126;47.472;7.850;2023-01-29T22:37:09;97512.84;;;-5.72;100.00
32761;BME280;19126;47.472;7.850;2023-01-29T22:38:41;97507.66;;;-5.70;100.00
